19:35
Airports
History
Links
Donate
Help keep this website running!
PayPal
Bitcoin
Information on this page is community maintained and may be outdated or inaccurate and is intended for reference only or PC simulator navigating!
Always use approved charts for navigating.
EDNM
Nittenau Bruck
Nittenau Bruck (EDNM)
Nittenau, Bayern, Germany (93149)
(U)
Lat/Lng:49° 13' 20.96" N / 12° 17' 47.4" E
49.222488 / 12.296501
Elevation:1161'ft 354mMSL
ID / ICAO:EDNM
Runways:1
Longest:(01-19) 547.2m 1,795ft Asphalt
Distance To
Airport ID:
Nearby VORs <50NM
Nearby NDBs
Nearby WeatherUpdated 04-29-17 18:58 GMT
Nearby weather at ETIH, HOHENFELS AAF located 20.8 nautical miles from EDNM
Altimeter: 30.04
Visibility: 6.2 statute miles
Wind: 0 knots (000°)
Temp: 7°c 45°f
Humidity: 87.1%

METAR: ETIH 291858Z AUTO 00000KT 9999 OVC070 07/05 A3004 RMK AO2 SLP184

(Powered by phpweather)
Runway 01 / 19
Dimensions:547.2 x 10.1m 1795' x 33'ft
Surface:Asphalt
Runway 01 [A]Runway 19 [B]
Heading:012°TH 192°TH
Lat:
Lng:
49° 13' 12.2"N
12° 17' 44.55"E
49° 13' 29.72"N
12° 17' 50.26"E
Google Map
Nearby Airports
(U) Schmidgaden 16.9 NM
EDPQ NNW 328°
(C) HOHENFELS AAF 20.8 NM
ETIH (WX) W 269°
(C) Straubing 24.4 NM
EDMS SSE 155°
(U) Arnbruck 31.8 NM
EDNB ESE 102°
(U) Weiden 32.5 NM
EDQW NNW 345°
(C) GRAFENWOHR AAF 36.6 NM
ETIC (WX) NNW 334°
(U) VILSECK AAF 37.0 NM
ETOI NW 320°
VFR Chart
Flight Planning at SkyVector.com